sensor_id;sensor_type;location;lat;lon;timestamp;P1;durP1;ratioP1;P2;durP2;ratioP2
6280;SDS011;3173;48.204;11.612;2022-08-21T00:00:24;4.80;;;1.50;;
6280;SDS011;3173;48.204;11.612;2022-08-21T00:02:54;1.93;;;1.50;;
6280;SDS011;3173;48.204;11.612;2022-08-21T00:05:21;1.50;;;1.40;;
6280;SDS011;3173;48.204;11.612;2022-08-21T00:07:47;3.70;;;1.73;;
6280;SDS011;3173;48.204;11.612;2022-08-21T00:10:13;2.17;;;1.30;;
6280;SDS011;3173;48.204;11.612;2022-08-21T00:12:39;2.33;;;1.83;;
6280;SDS011;3173;48.204;11.612;2022-08-21T00:15:06;5.17;;;1.87;;
6280;SDS011;3173;48.204;11.612;2022-08-21T00:17:33;3.43;;;1.60;;
6280;SDS011;3173;48.204;11.612;2022-08-21T00:19:59;2.70;;;2.07;;
6280;SDS011;3173;48.204;11.612;2022-08-21T00:22:25;2.03;;;1.50;;
6280;SDS011;3173;48.204;11.612;2022-08-21T00:24:51;2.10;;;1.63;;
6280;SDS011;3173;48.204;11.612;2022-08-21T00:27:17;1.50;;;1.30;;
6280;SDS011;3173;48.204;11.612;2022-08-21T00:29:43;2.90;;;1.43;;
6280;SDS011;3173;48.204;11.612;2022-08-21T00:32:09;2.60;;;2.00;;
6280;SDS011;3173;48.204;11.612;2022-08-21T00:34:34;4.93;;;1.87;;
6280;SDS011;3173;48.204;11.612;2022-08-21T00:37:00;1.77;;;1.53;;
6280;SDS011;3173;48.204;11.612;2022-08-21T00:39:26;1.70;;;1.27;;
6280;SDS011;3173;48.204;11.612;2022-08-21T00:41:51;2.10;;;1.50;;
6280;SDS011;3173;48.204;11.612;2022-08-21T00:44:17;2.67;;;1.40;;
6280;SDS011;3173;48.204;11.612;2022-08-21T00:46:42;3.37;;;1.60;;
6280;SDS011;3173;48.204;11.612;2022-08-21T00:49:10;2.70;;;1.57;;
6280;SDS011;3173;48.204;11.612;2022-08-21T00:51:54;2.80;;;1.73;;
6280;SDS011;3173;48.204;11.612;2022-08-21T00:54:24;3.03;;;1.50;;
6280;SDS011;3173;48.204;11.612;2022-08-21T00:56:52;2.90;;;1.67;;
6280;SDS011;3173;48.204;11.612;2022-08-21T00:59:21;2.93;;;1.37;;
6280;SDS011;3173;48.204;11.612;2022-08-21T01:01:48;2.00;;;1.50;;
6280;SDS011;3173;48.204;11.612;2022-08-21T01:04:15;2.17;;;1.20;;
6280;SDS011;3173;48.204;11.612;2022-08-21T01:06:41;3.17;;;1.50;;
6280;SDS011;3173;48.204;11.612;2022-08-21T01:09:07;3.40;;;1.53;;
6280;SDS011;3173;48.204;11.612;2022-08-21T01:11:34;2.30;;;1.37;;
6280;SDS011;3173;48.204;11.612;2022-08-21T01:14:00;1.67;;;1.53;;
6280;SDS011;3173;48.204;11.612;2022-08-21T01:16:25;2.17;;;1.40;;
6280;SDS011;3173;48.204;11.612;2022-08-21T01:18:51;2.90;;;1.60;;
6280;SDS011;3173;48.204;11.612;2022-08-21T01:21:22;2.37;;;1.70;;
6280;SDS011;3173;48.204;11.612;2022-08-21T01:23:50;2.17;;;1.77;;
6280;SDS011;3173;48.204;11.612;2022-08-21T01:26:19;3.13;;;1.27;;
6280;SDS011;3173;48.204;11.612;2022-08-21T01:28:49;2.17;;;1.67;;
6280;SDS011;3173;48.204;11.612;2022-08-21T01:31:22;3.57;;;1.47;;
6280;SDS011;3173;48.204;11.612;2022-08-21T01:33:50;2.00;;;1.33;;
6280;SDS011;3173;48.204;11.612;2022-08-21T01:36:16;1.67;;;1.43;;
6280;SDS011;3173;48.204;11.612;2022-08-21T01:38:41;3.10;;;1.70;;
6280;SDS011;3173;48.204;11.612;2022-08-21T01:41:07;3.23;;;1.40;;
6280;SDS011;3173;48.204;11.612;2022-08-21T01:43:33;2.00;;;1.30;;
6280;SDS011;3173;48.204;11.612;2022-08-21T01:45:58;3.40;;;1.23;;
6280;SDS011;3173;48.204;11.612;2022-08-21T01:48:24;2.70;;;1.30;;
6280;SDS011;3173;48.204;11.612;2022-08-21T01:50:49;1.80;;;1.40;;
6280;SDS011;3173;48.204;11.612;2022-08-21T01:53:15;1.57;;;1.27;;
6280;SDS011;3173;48.204;11.612;2022-08-21T01:55:42;2.17;;;1.63;;
6280;SDS011;3173;48.204;11.612;2022-08-21T01:58:08;7.43;;;1.53;;
6280;SDS011;3173;48.204;11.612;2022-08-21T02:00:33;1.50;;;1.10;;
6280;SDS011;3173;48.204;11.612;2022-08-21T02:02:59;3.93;;;1.60;;
6280;SDS011;3173;48.204;11.612;2022-08-21T02:05:24;1.90;;;1.27;;
6280;SDS011;3173;48.204;11.612;2022-08-21T02:07:52;1.90;;;1.60;;
6280;SDS011;3173;48.204;11.612;2022-08-21T02:10:20;2.90;;;1.47;;
6280;SDS011;3173;48.204;11.612;2022-08-21T02:12:49;2.30;;;1.37;;
6280;SDS011;3173;48.204;11.612;2022-08-21T02:15:14;3.47;;;1.70;;
6280;SDS011;3173;48.204;11.612;2022-08-21T02:17:45;2.00;;;1.60;;
6280;SDS011;3173;48.204;11.612;2022-08-21T02:20:16;1.30;;;1.20;;
6280;SDS011;3173;48.204;11.612;2022-08-21T02:22:43;1.73;;;1.37;;
6280;SDS011;3173;48.204;11.612;2022-08-21T02:25:09;2.70;;;1.40;;
6280;SDS011;3173;48.204;11.612;2022-08-21T02:27:42;2.83;;;1.60;;
6280;SDS011;3173;48.204;11.612;2022-08-21T02:30:13;1.60;;;1.20;;
6280;SDS011;3173;48.204;11.612;2022-08-21T02:32:43;2.67;;;1.50;;
6280;SDS011;3173;48.204;11.612;2022-08-21T02:35:10;1.50;;;1.40;;
6280;SDS011;3173;48.204;11.612;2022-08-21T02:40:20;3.17;;;1.50;;
6280;SDS011;3173;48.204;11.612;2022-08-21T02:42:47;2.83;;;1.67;;
6280;SDS011;3173;48.204;11.612;2022-08-21T02:45:13;1.90;;;1.40;;
6280;SDS011;3173;48.204;11.612;2022-08-21T02:47:39;1.97;;;1.20;;
6280;SDS011;3173;48.204;11.612;2022-08-21T02:50:11;1.67;;;1.30;;
6280;SDS011;3173;48.204;11.612;2022-08-21T02:52:36;2.50;;;1.40;;
6280;SDS011;3173;48.204;11.612;2022-08-21T02:55:02;1.50;;;1.30;;
6280;SDS011;3173;48.204;11.612;2022-08-21T02:57:28;1.70;;;1.50;;
6280;SDS011;3173;48.204;11.612;2022-08-21T02:59:53;1.90;;;1.37;;
6280;SDS011;3173;48.204;11.612;2022-08-21T03:02:19;1.70;;;1.57;;
6280;SDS011;3173;48.204;11.612;2022-08-21T03:04:46;2.40;;;1.50;;
6280;SDS011;3173;48.204;11.612;2022-08-21T03:07:12;1.53;;;1.20;;
6280;SDS011;3173;48.204;11.612;2022-08-21T03:09:37;1.77;;;1.40;;
6280;SDS011;3173;48.204;11.612;2022-08-21T03:12:03;3.40;;;1.60;;
6280;SDS011;3173;48.204;11.612;2022-08-21T03:14:29;2.90;;;1.33;;
6280;SDS011;3173;48.204;11.612;2022-08-21T03:16:54;5.53;;;1.37;;
6280;SDS011;3173;48.204;11.612;2022-08-21T03:19:20;1.60;;;1.30;;
6280;SDS011;3173;48.204;11.612;2022-08-21T03:21:45;2.10;;;1.50;;
6280;SDS011;3173;48.204;11.612;2022-08-21T03:24:11;1.30;;;1.20;;
6280;SDS011;3173;48.204;11.612;2022-08-21T03:26:37;2.80;;;1.67;;
6280;SDS011;3173;48.204;11.612;2022-08-21T03:29:03;4.93;;;1.57;;
6280;SDS011;3173;48.204;11.612;2022-08-21T03:31:28;1.87;;;1.47;;
6280;SDS011;3173;48.204;11.612;2022-08-21T03:33:56;2.07;;;1.40;;
6280;SDS011;3173;48.204;11.612;2022-08-21T03:36:22;2.10;;;1.30;;
6280;SDS011;3173;48.204;11.612;2022-08-21T03:38:48;1.97;;;1.50;;
6280;SDS011;3173;48.204;11.612;2022-08-21T03:41:13;1.57;;;1.30;;
6280;SDS011;3173;48.204;11.612;2022-08-21T03:43:39;1.50;;;1.30;;
6280;SDS011;3173;48.204;11.612;2022-08-21T03:46:05;3.07;;;1.53;;
6280;SDS011;3173;48.204;11.612;2022-08-21T03:48:32;2.23;;;1.30;;
6280;SDS011;3173;48.204;11.612;2022-08-21T03:50:59;1.90;;;1.30;;
6280;SDS011;3173;48.204;11.612;2022-08-21T03:53:24;2.30;;;1.37;;
6280;SDS011;3173;48.204;11.612;2022-08-21T03:55:51;2.50;;;1.47;;
6280;SDS011;3173;48.204;11.612;2022-08-21T03:58:19;2.37;;;1.80;;
6280;SDS011;3173;48.204;11.612;2022-08-21T04:00:47;3.40;;;1.53;;
6280;SDS011;3173;48.204;11.612;2022-08-21T04:03:15;2.80;;;1.43;;
6280;SDS011;3173;48.204;11.612;2022-08-21T04:05:41;3.73;;;1.70;;
6280;SDS011;3173;48.204;11.612;2022-08-21T04:08:07;5.70;;;1.70;;
6280;SDS011;3173;48.204;11.612;2022-08-21T04:10:35;2.87;;;1.53;;
6280;SDS011;3173;48.204;11.612;2022-08-21T04:13:02;2.50;;;1.63;;
6280;SDS011;3173;48.204;11.612;2022-08-21T04:15:29;1.20;;;1.10;;
6280;SDS011;3173;48.204;11.612;2022-08-21T04:17:55;1.80;;;1.40;;
6280;SDS011;3173;48.204;11.612;2022-08-21T04:20:21;5.43;;;1.60;;
6280;SDS011;3173;48.204;11.612;2022-08-21T04:22:48;2.50;;;1.60;;
6280;SDS011;3173;48.204;11.612;2022-08-21T04:25:15;4.10;;;1.70;;
6280;SDS011;3173;48.204;11.612;2022-08-21T04:27:43;4.50;;;1.50;;
6280;SDS011;3173;48.204;11.612;2022-08-21T04:30:10;4.83;;;1.77;;
6280;SDS011;3173;48.204;11.612;2022-08-21T04:32:36;2.27;;;1.80;;
6280;SDS011;3173;48.204;11.612;2022-08-21T04:35:04;2.40;;;1.37;;
6280;SDS011;3173;48.204;11.612;2022-08-21T04:37:36;4.60;;;1.40;;
6280;SDS011;3173;48.204;11.612;2022-08-21T04:40:02;2.10;;;1.50;;
6280;SDS011;3173;48.204;11.612;2022-08-21T04:42:29;2.00;;;1.47;;
6280;SDS011;3173;48.204;11.612;2022-08-21T04:44:55;4.27;;;1.60;;
6280;SDS011;3173;48.204;11.612;2022-08-21T04:47:21;1.93;;;1.40;;
6280;SDS011;3173;48.204;11.612;2022-08-21T04:49:47;3.13;;;1.60;;
6280;SDS011;3173;48.204;11.612;2022-08-21T04:52:13;2.20;;;1.70;;
6280;SDS011;3173;48.204;11.612;2022-08-21T04:54:42;4.37;;;2.20;;
6280;SDS011;3173;48.204;11.612;2022-08-21T04:57:10;2.03;;;1.70;;
6280;SDS011;3173;48.204;11.612;2022-08-21T04:59:40;2.10;;;1.90;;
6280;SDS011;3173;48.204;11.612;2022-08-21T05:02:08;2.03;;;1.70;;
6280;SDS011;3173;48.204;11.612;2022-08-21T05:04:36;2.63;;;1.77;;
6280;SDS011;3173;48.204;11.612;2022-08-21T05:07:05;3.30;;;1.67;;
6280;SDS011;3173;48.204;11.612;2022-08-21T05:09:35;2.77;;;1.70;;
6280;SDS011;3173;48.204;11.612;2022-08-21T05:12:03;2.73;;;1.73;;
6280;SDS011;3173;48.204;11.612;2022-08-21T05:14:29;2.17;;;1.70;;
6280;SDS011;3173;48.204;11.612;2022-08-21T05:16:54;4.33;;;1.50;;
6280;SDS011;3173;48.204;11.612;2022-08-21T05:19:20;5.63;;;1.60;;
6280;SDS011;3173;48.204;11.612;2022-08-21T05:21:46;2.40;;;1.80;;
6280;SDS011;3173;48.204;11.612;2022-08-21T05:24:14;2.20;;;1.80;;
6280;SDS011;3173;48.204;11.612;2022-08-21T05:26:40;2.67;;;1.73;;
6280;SDS011;3173;48.204;11.612;2022-08-21T05:29:06;2.03;;;1.60;;
6280;SDS011;3173;48.204;11.612;2022-08-21T05:31:32;2.70;;;2.03;;
6280;SDS011;3173;48.204;11.612;2022-08-21T05:33:58;1.83;;;1.50;;
6280;SDS011;3173;48.204;11.612;2022-08-21T05:36:23;2.00;;;1.63;;
6280;SDS011;3173;48.204;11.612;2022-08-21T05:38:49;2.23;;;1.80;;
6280;SDS011;3173;48.204;11.612;2022-08-21T05:41:15;1.73;;;1.30;;
6280;SDS011;3173;48.204;11.612;2022-08-21T05:43:41;3.50;;;1.60;;
6280;SDS011;3173;48.204;11.612;2022-08-21T05:46:07;3.87;;;1.63;;
6280;SDS011;3173;48.204;11.612;2022-08-21T05:48:33;4.60;;;1.50;;
6280;SDS011;3173;48.204;11.612;2022-08-21T05:51:04;4.50;;;1.53;;
6280;SDS011;3173;48.204;11.612;2022-08-21T05:53:31;1.90;;;1.40;;
6280;SDS011;3173;48.204;11.612;2022-08-21T05:55:56;1.73;;;1.57;;
6280;SDS011;3173;48.204;11.612;2022-08-21T05:58:22;1.60;;;1.13;;
6280;SDS011;3173;48.204;11.612;2022-08-21T06:00:48;2.97;;;1.60;;
6280;SDS011;3173;48.204;11.612;2022-08-21T06:03:23;4.37;;;1.90;;
6280;SDS011;3173;48.204;11.612;2022-08-21T06:05:51;2.80;;;1.67;;
6280;SDS011;3173;48.204;11.612;2022-08-21T06:08:18;1.40;;;1.30;;
6280;SDS011;3173;48.204;11.612;2022-08-21T06:10:45;2.10;;;1.70;;
6280;SDS011;3173;48.204;11.612;2022-08-21T06:13:12;3.53;;;1.50;;
6280;SDS011;3173;48.204;11.612;2022-08-21T06:15:38;3.03;;;1.40;;
6280;SDS011;3173;48.204;11.612;2022-08-21T06:18:04;5.17;;;1.70;;
6280;SDS011;3173;48.204;11.612;2022-08-21T06:20:30;4.13;;;2.03;;
6280;SDS011;3173;48.204;11.612;2022-08-21T06:22:56;1.63;;;1.30;;
6280;SDS011;3173;48.204;11.612;2022-08-21T06:25:22;3.83;;;1.70;;
6280;SDS011;3173;48.204;11.612;2022-08-21T06:27:47;7.73;;;1.80;;
6280;SDS011;3173;48.204;11.612;2022-08-21T06:30:13;9.93;;;1.93;;
6280;SDS011;3173;48.204;11.612;2022-08-21T06:32:39;5.33;;;1.93;;
6280;SDS011;3173;48.204;11.612;2022-08-21T06:35:05;5.17;;;1.63;;
6280;SDS011;3173;48.204;11.612;2022-08-21T06:37:31;5.93;;;1.80;;
6280;SDS011;3173;48.204;11.612;2022-08-21T06:39:57;1.93;;;1.37;;
6280;SDS011;3173;48.204;11.612;2022-08-21T06:42:22;1.80;;;1.40;;
6280;SDS011;3173;48.204;11.612;2022-08-21T06:44:48;3.00;;;1.70;;
6280;SDS011;3173;48.204;11.612;2022-08-21T06:47:14;3.40;;;1.97;;
6280;SDS011;3173;48.204;11.612;2022-08-21T06:49:40;2.60;;;1.90;;
6280;SDS011;3173;48.204;11.612;2022-08-21T06:52:09;4.87;;;2.00;;
6280;SDS011;3173;48.204;11.612;2022-08-21T06:54:36;3.43;;;1.77;;
6280;SDS011;3173;48.204;11.612;2022-08-21T06:57:02;5.00;;;1.97;;
6280;SDS011;3173;48.204;11.612;2022-08-21T06:59:28;6.33;;;2.57;;
6280;SDS011;3173;48.204;11.612;2022-08-21T07:01:54;5.20;;;2.30;;
6280;SDS011;3173;48.204;11.612;2022-08-21T07:04:20;8.70;;;2.43;;
6280;SDS011;3173;48.204;11.612;2022-08-21T07:06:46;2.50;;;2.03;;
6280;SDS011;3173;48.204;11.612;2022-08-21T07:09:12;4.33;;;2.40;;
6280;SDS011;3173;48.204;11.612;2022-08-21T07:11:38;2.13;;;1.80;;
6280;SDS011;3173;48.204;11.612;2022-08-21T07:14:04;5.63;;;2.60;;
6280;SDS011;3173;48.204;11.612;2022-08-21T07:16:30;5.37;;;2.60;;
6280;SDS011;3173;48.204;11.612;2022-08-21T07:18:56;2.70;;;2.30;;
6280;SDS011;3173;48.204;11.612;2022-08-21T07:21:22;5.13;;;2.20;;
6280;SDS011;3173;48.204;11.612;2022-08-21T07:23:49;4.03;;;2.70;;
6280;SDS011;3173;48.204;11.612;2022-08-21T07:26:16;7.27;;;3.30;;
6280;SDS011;3173;48.204;11.612;2022-08-21T07:28:43;4.60;;;2.33;;
6280;SDS011;3173;48.204;11.612;2022-08-21T07:31:09;4.73;;;2.70;;
6280;SDS011;3173;48.204;11.612;2022-08-21T07:33:38;4.87;;;3.07;;
6280;SDS011;3173;48.204;11.612;2022-08-21T07:36:04;3.40;;;2.40;;
6280;SDS011;3173;48.204;11.612;2022-08-21T07:38:30;3.83;;;2.60;;
6280;SDS011;3173;48.204;11.612;2022-08-21T07:40:56;3.63;;;2.93;;
6280;SDS011;3173;48.204;11.612;2022-08-21T07:43:24;3.93;;;2.97;;
6280;SDS011;3173;48.204;11.612;2022-08-21T07:45:50;4.70;;;3.47;;
6280;SDS011;3173;48.204;11.612;2022-08-21T07:48:16;5.47;;;2.90;;
6280;SDS011;3173;48.204;11.612;2022-08-21T07:50:42;5.37;;;3.30;;
6280;SDS011;3173;48.204;11.612;2022-08-21T07:53:09;5.07;;;2.97;;
6280;SDS011;3173;48.204;11.612;2022-08-21T07:55:35;4.57;;;2.90;;
6280;SDS011;3173;48.204;11.612;2022-08-21T07:58:01;3.53;;;2.73;;
6280;SDS011;3173;48.204;11.612;2022-08-21T08:00:27;6.53;;;2.93;;
6280;SDS011;3173;48.204;11.612;2022-08-21T08:02:54;3.40;;;2.87;;
6280;SDS011;3173;48.204;11.612;2022-08-21T08:05:21;4.70;;;3.50;;
6280;SDS011;3173;48.204;11.612;2022-08-21T08:07:48;5.93;;;3.40;;
6280;SDS011;3173;48.204;11.612;2022-08-21T08:10:14;5.73;;;3.10;;
6280;SDS011;3173;48.204;11.612;2022-08-21T08:12:41;4.47;;;3.47;;
6280;SDS011;3173;48.204;11.612;2022-08-21T08:15:08;6.03;;;3.27;;
6280;SDS011;3173;48.204;11.612;2022-08-21T08:17:35;5.37;;;3.40;;
6280;SDS011;3173;48.204;11.612;2022-08-21T08:20:02;6.17;;;3.47;;
6280;SDS011;3173;48.204;11.612;2022-08-21T08:22:28;5.47;;;3.60;;
6280;SDS011;3173;48.204;11.612;2022-08-21T08:24:55;5.57;;;2.83;;
6280;SDS011;3173;48.204;11.612;2022-08-21T08:27:22;5.50;;;3.70;;
6280;SDS011;3173;48.204;11.612;2022-08-21T08:29:48;5.73;;;3.47;;
6280;SDS011;3173;48.204;11.612;2022-08-21T08:32:14;4.80;;;3.00;;
6280;SDS011;3173;48.204;11.612;2022-08-21T08:34:40;6.50;;;3.13;;
6280;SDS011;3173;48.204;11.612;2022-08-21T08:37:06;6.73;;;4.07;;
6280;SDS011;3173;48.204;11.612;2022-08-21T08:39:33;5.67;;;3.50;;
6280;SDS011;3173;48.204;11.612;2022-08-21T08:42:07;6.40;;;3.90;;
6280;SDS011;3173;48.204;11.612;2022-08-21T08:44:35;4.90;;;3.53;;
6280;SDS011;3173;48.204;11.612;2022-08-21T08:47:01;8.80;;;3.50;;
6280;SDS011;3173;48.204;11.612;2022-08-21T08:51:58;4.17;;;3.13;;
6280;SDS011;3173;48.204;11.612;2022-08-21T08:54:48;7.10;;;3.60;;
6280;SDS011;3173;48.204;11.612;2022-08-21T08:57:14;5.70;;;3.50;;
6280;SDS011;3173;48.204;11.612;2022-08-21T08:59:43;5.13;;;3.70;;
6280;SDS011;3173;48.204;11.612;2022-08-21T09:02:10;5.63;;;2.77;;
6280;SDS011;3173;48.204;11.612;2022-08-21T09:04:37;4.20;;;3.20;;
6280;SDS011;3173;48.204;11.612;2022-08-21T09:07:10;7.47;;;3.70;;
6280;SDS011;3173;48.204;11.612;2022-08-21T09:17:39;3.90;;;3.13;;
6280;SDS011;3173;48.204;11.612;2022-08-21T09:20:17;3.80;;;2.70;;
6280;SDS011;3173;48.204;11.612;2022-08-21T09:22:54;7.23;;;3.10;;
6280;SDS011;3173;48.204;11.612;2022-08-21T09:25:24;5.10;;;2.53;;
6280;SDS011;3173;48.204;11.612;2022-08-21T09:27:51;6.13;;;3.30;;
6280;SDS011;3173;48.204;11.612;2022-08-21T09:30:18;3.90;;;2.73;;
6280;SDS011;3173;48.204;11.612;2022-08-21T09:32:44;3.47;;;2.17;;
6280;SDS011;3173;48.204;11.612;2022-08-21T09:35:12;3.63;;;2.30;;
6280;SDS011;3173;48.204;11.612;2022-08-21T09:42:55;2.60;;;2.23;;
6280;SDS011;3173;48.204;11.612;2022-08-21T09:45:21;3.33;;;1.87;;
6280;SDS011;3173;48.204;11.612;2022-08-21T09:47:47;3.87;;;2.40;;
6280;SDS011;3173;48.204;11.612;2022-08-21T09:50:14;4.90;;;2.20;;
6280;SDS011;3173;48.204;11.612;2022-08-21T09:52:45;4.80;;;3.40;;
6280;SDS011;3173;48.204;11.612;2022-08-21T09:55:19;3.13;;;2.30;;
6280;SDS011;3173;48.204;11.612;2022-08-21T09:58:04;3.87;;;2.27;;
6280;SDS011;3173;48.204;11.612;2022-08-21T10:00:32;3.87;;;2.30;;
6280;SDS011;3173;48.204;11.612;2022-08-21T10:03:11;3.60;;;3.00;;
6280;SDS011;3173;48.204;11.612;2022-08-21T10:05:38;4.73;;;2.00;;
6280;SDS011;3173;48.204;11.612;2022-08-21T10:08:04;7.00;;;2.17;;
6280;SDS011;3173;48.204;11.612;2022-08-21T10:10:32;7.40;;;2.33;;
6280;SDS011;3173;48.204;11.612;2022-08-21T10:13:08;4.60;;;2.50;;
6280;SDS011;3173;48.204;11.612;2022-08-21T10:36:27;2.10;;;1.83;;
6280;SDS011;3173;48.204;11.612;2022-08-21T10:44:40;2.60;;;1.80;;
6280;SDS011;3173;48.204;11.612;2022-08-21T10:57:29;3.03;;;2.40;;
6280;SDS011;3173;48.204;11.612;2022-08-21T11:00:00;4.80;;;2.00;;
6280;SDS011;3173;48.204;11.612;2022-08-21T11:02:40;4.10;;;2.40;;
6280;SDS011;3173;48.204;11.612;2022-08-21T11:05:11;7.70;;;2.93;;
6280;SDS011;3173;48.204;11.612;2022-08-21T11:10:16;4.03;;;2.73;;
6280;SDS011;3173;48.204;11.612;2022-08-21T11:12:48;4.00;;;2.90;;
6280;SDS011;3173;48.204;11.612;2022-08-21T11:17:45;3.00;;;2.10;;
6280;SDS011;3173;48.204;11.612;2022-08-21T11:23:17;2.57;;;2.30;;
6280;SDS011;3173;48.204;11.612;2022-08-21T11:25:45;5.73;;;2.90;;
6280;SDS011;3173;48.204;11.612;2022-08-21T11:28:26;3.53;;;1.83;;
6280;SDS011;3173;48.204;11.612;2022-08-21T11:33:36;3.63;;;2.00;;
6280;SDS011;3173;48.204;11.612;2022-08-21T11:36:14;3.50;;;1.80;;
6280;SDS011;3173;48.204;11.612;2022-08-21T11:38:42;3.53;;;1.80;;
6280;SDS011;3173;48.204;11.612;2022-08-21T11:49:17;2.30;;;1.90;;
6280;SDS011;3173;48.204;11.612;2022-08-21T11:51:55;3.37;;;2.27;;
6280;SDS011;3173;48.204;11.612;2022-08-21T11:54:38;3.30;;;1.80;;
6280;SDS011;3173;48.204;11.612;2022-08-21T11:57:29;2.80;;;2.30;;
6280;SDS011;3173;48.204;11.612;2022-08-21T12:00:03;3.93;;;2.30;;
6280;SDS011;3173;48.204;11.612;2022-08-21T12:02:35;2.37;;;1.77;;
6280;SDS011;3173;48.204;11.612;2022-08-21T12:05:04;3.27;;;1.77;;
6280;SDS011;3173;48.204;11.612;2022-08-21T12:07:35;2.00;;;1.47;;
6280;SDS011;3173;48.204;11.612;2022-08-21T12:10:03;2.00;;;1.80;;
6280;SDS011;3173;48.204;11.612;2022-08-21T12:12:30;3.83;;;1.47;;
6280;SDS011;3173;48.204;11.612;2022-08-21T12:15:05;2.57;;;1.60;;
6280;SDS011;3173;48.204;11.612;2022-08-21T12:17:35;2.40;;;1.80;;
6280;SDS011;3173;48.204;11.612;2022-08-21T12:20:25;3.00;;;1.43;;
6280;SDS011;3173;48.204;11.612;2022-08-21T12:23:02;1.87;;;1.27;;
6280;SDS011;3173;48.204;11.612;2022-08-21T12:25:35;4.70;;;1.50;;
6280;SDS011;3173;48.204;11.612;2022-08-21T12:28:05;3.10;;;1.60;;
6280;SDS011;3173;48.204;11.612;2022-08-21T12:30:33;2.13;;;1.43;;
6280;SDS011;3173;48.204;11.612;2022-08-21T12:33:01;3.20;;;1.60;;
6280;SDS011;3173;48.204;11.612;2022-08-21T12:35:32;3.63;;;1.80;;
6280;SDS011;3173;48.204;11.612;2022-08-21T12:38:02;2.00;;;1.40;;
6280;SDS011;3173;48.204;11.612;2022-08-21T12:40:37;2.20;;;1.70;;
6280;SDS011;3173;48.204;11.612;2022-08-21T12:43:04;3.33;;;1.53;;
6280;SDS011;3173;48.204;11.612;2022-08-21T12:45:37;3.13;;;1.80;;
6280;SDS011;3173;48.204;11.612;2022-08-21T12:50:50;7.37;;;1.90;;
6280;SDS011;3173;48.204;11.612;2022-08-21T12:53:21;6.47;;;2.20;;
6280;SDS011;3173;48.204;11.612;2022-08-21T12:55:50;3.97;;;1.90;;
6280;SDS011;3173;48.204;11.612;2022-08-21T12:58:20;3.53;;;1.67;;
6280;SDS011;3173;48.204;11.612;2022-08-21T13:01:05;3.13;;;1.90;;
6280;SDS011;3173;48.204;11.612;2022-08-21T13:03:33;3.43;;;1.83;;
6280;SDS011;3173;48.204;11.612;2022-08-21T13:06:01;2.80;;;1.53;;
6280;SDS011;3173;48.204;11.612;2022-08-21T13:08:28;2.73;;;1.40;;
6280;SDS011;3173;48.204;11.612;2022-08-21T13:11:03;3.40;;;1.70;;
6280;SDS011;3173;48.204;11.612;2022-08-21T13:13:29;2.87;;;1.60;;
6280;SDS011;3173;48.204;11.612;2022-08-21T13:16:05;3.07;;;1.60;;
6280;SDS011;3173;48.204;11.612;2022-08-21T13:18:36;4.27;;;1.77;;
6280;SDS011;3173;48.204;11.612;2022-08-21T13:21:11;3.43;;;1.67;;
6280;SDS011;3173;48.204;11.612;2022-08-21T13:23:38;2.23;;;1.50;;
6280;SDS011;3173;48.204;11.612;2022-08-21T13:26:17;5.30;;;1.90;;
6280;SDS011;3173;48.204;11.612;2022-08-21T13:28:44;4.20;;;1.80;;
6280;SDS011;3173;48.204;11.612;2022-08-21T13:31:12;6.87;;;2.33;;
6280;SDS011;3173;48.204;11.612;2022-08-21T13:33:42;6.27;;;1.67;;
6280;SDS011;3173;48.204;11.612;2022-08-21T13:36:09;4.60;;;1.70;;
6280;SDS011;3173;48.204;11.612;2022-08-21T13:38:37;1.80;;;1.50;;
6280;SDS011;3173;48.204;11.612;2022-08-21T13:41:16;2.63;;;1.63;;
6280;SDS011;3173;48.204;11.612;2022-08-21T13:43:47;4.20;;;1.80;;
6280;SDS011;3173;48.204;11.612;2022-08-21T13:46:14;3.37;;;1.47;;
6280;SDS011;3173;48.204;11.612;2022-08-21T13:48:40;4.13;;;1.50;;
6280;SDS011;3173;48.204;11.612;2022-08-21T13:51:07;2.97;;;1.83;;
6280;SDS011;3173;48.204;11.612;2022-08-21T13:53:35;2.70;;;1.47;;
6280;SDS011;3173;48.204;11.612;2022-08-21T13:56:02;3.77;;;1.80;;
6280;SDS011;3173;48.204;11.612;2022-08-21T13:58:29;1.80;;;1.37;;
6280;SDS011;3173;48.204;11.612;2022-08-21T14:00:56;2.50;;;1.70;;
6280;SDS011;3173;48.204;11.612;2022-08-21T14:03:44;1.90;;;1.30;;
6280;SDS011;3173;48.204;11.612;2022-08-21T14:06:15;2.17;;;1.50;;
6280;SDS011;3173;48.204;11.612;2022-08-21T14:08:46;3.90;;;1.80;;
6280;SDS011;3173;48.204;11.612;2022-08-21T14:11:13;1.83;;;1.17;;
6280;SDS011;3173;48.204;11.612;2022-08-21T14:17:06;3.13;;;1.27;;
6280;SDS011;3173;48.204;11.612;2022-08-21T14:21:31;2.97;;;1.57;;
6280;SDS011;3173;48.204;11.612;2022-08-21T14:24:14;3.80;;;1.50;;
6280;SDS011;3173;48.204;11.612;2022-08-21T14:27:07;2.20;;;1.23;;
6280;SDS011;3173;48.204;11.612;2022-08-21T14:29:37;3.80;;;1.90;;
6280;SDS011;3173;48.204;11.612;2022-08-21T14:34:36;3.10;;;1.10;;
6280;SDS011;3173;48.204;11.612;2022-08-21T14:37:02;3.67;;;1.20;;
6280;SDS011;3173;48.204;11.612;2022-08-21T14:39:28;3.30;;;1.10;;
6280;SDS011;3173;48.204;11.612;2022-08-21T14:41:53;2.37;;;1.47;;
6280;SDS011;3173;48.204;11.612;2022-08-21T14:44:20;6.33;;;1.80;;
6280;SDS011;3173;48.204;11.612;2022-08-21T14:46:46;3.77;;;1.67;;
6280;SDS011;3173;48.204;11.612;2022-08-21T14:49:12;3.50;;;1.50;;
6280;SDS011;3173;48.204;11.612;2022-08-21T14:51:38;6.60;;;1.63;;
6280;SDS011;3173;48.204;11.612;2022-08-21T14:54:04;3.03;;;1.50;;
6280;SDS011;3173;48.204;11.612;2022-08-21T14:56:31;3.87;;;1.80;;
6280;SDS011;3173;48.204;11.612;2022-08-21T14:58:58;2.40;;;1.40;;
6280;SDS011;3173;48.204;11.612;2022-08-21T15:01:27;3.30;;;1.60;;
6280;SDS011;3173;48.204;11.612;2022-08-21T15:03:53;1.53;;;1.33;;
6280;SDS011;3173;48.204;11.612;2022-08-21T15:06:19;2.10;;;1.40;;
6280;SDS011;3173;48.204;11.612;2022-08-21T15:08:46;2.67;;;1.50;;
6280;SDS011;3173;48.204;11.612;2022-08-21T15:11:14;2.77;;;1.77;;
6280;SDS011;3173;48.204;11.612;2022-08-21T15:13:41;3.30;;;1.90;;
6280;SDS011;3173;48.204;11.612;2022-08-21T15:16:08;3.03;;;1.63;;
6280;SDS011;3173;48.204;11.612;2022-08-21T15:18:34;4.70;;;2.07;;
6280;SDS011;3173;48.204;11.612;2022-08-21T15:21:00;3.50;;;1.83;;
6280;SDS011;3173;48.204;11.612;2022-08-21T15:23:26;2.70;;;1.90;;
6280;SDS011;3173;48.204;11.612;2022-08-21T15:25:52;3.20;;;1.70;;
6280;SDS011;3173;48.204;11.612;2022-08-21T15:28:18;5.30;;;1.73;;
6280;SDS011;3173;48.204;11.612;2022-08-21T15:30:45;4.53;;;1.47;;
6280;SDS011;3173;48.204;11.612;2022-08-21T15:33:11;3.40;;;1.63;;
6280;SDS011;3173;48.204;11.612;2022-08-21T15:35:37;6.63;;;1.90;;
6280;SDS011;3173;48.204;11.612;2022-08-21T15:38:04;2.60;;;1.97;;
6280;SDS011;3173;48.204;11.612;2022-08-21T15:40:30;4.10;;;1.93;;
6280;SDS011;3173;48.204;11.612;2022-08-21T15:42:57;9.83;;;2.27;;
6280;SDS011;3173;48.204;11.612;2022-08-21T15:45:24;2.83;;;1.73;;
6280;SDS011;3173;48.204;11.612;2022-08-21T15:47:50;3.50;;;2.00;;
6280;SDS011;3173;48.204;11.612;2022-08-21T15:50:17;4.10;;;1.70;;
6280;SDS011;3173;48.204;11.612;2022-08-21T15:52:43;4.40;;;1.90;;
6280;SDS011;3173;48.204;11.612;2022-08-21T15:55:09;6.83;;;2.00;;
6280;SDS011;3173;48.204;11.612;2022-08-21T15:57:36;2.83;;;1.70;;
6280;SDS011;3173;48.204;11.612;2022-08-21T16:00:04;2.73;;;1.60;;
6280;SDS011;3173;48.204;11.612;2022-08-21T16:02:35;5.33;;;2.50;;
6280;SDS011;3173;48.204;11.612;2022-08-21T16:05:01;4.47;;;2.30;;
6280;SDS011;3173;48.204;11.612;2022-08-21T16:07:28;4.03;;;1.83;;
6280;SDS011;3173;48.204;11.612;2022-08-21T16:09:53;6.90;;;1.83;;
6280;SDS011;3173;48.204;11.612;2022-08-21T16:12:24;2.93;;;1.77;;
6280;SDS011;3173;48.204;11.612;2022-08-21T16:14:51;4.00;;;1.80;;
6280;SDS011;3173;48.204;11.612;2022-08-21T16:17:17;3.93;;;1.83;;
6280;SDS011;3173;48.204;11.612;2022-08-21T16:19:44;3.00;;;1.57;;
6280;SDS011;3173;48.204;11.612;2022-08-21T16:22:10;2.50;;;1.30;;
6280;SDS011;3173;48.204;11.612;2022-08-21T16:24:36;2.60;;;2.10;;
6280;SDS011;3173;48.204;11.612;2022-08-21T16:27:02;2.73;;;1.70;;
6280;SDS011;3173;48.204;11.612;2022-08-21T16:29:30;2.90;;;2.13;;